createdAt,value
2022-12-17T00:04:37.955Z,26.00
2022-12-17T00:07:23.522Z,24.87
2022-12-17T00:10:08.870Z,24.83
2022-12-17T00:12:56.475Z,24.23
2022-12-17T00:15:42.977Z,26.40
2022-12-17T00:18:30.705Z,25.37
2022-12-17T00:21:18.514Z,24.23
2022-12-17T00:24:05.230Z,24.50
2022-12-17T00:26:51.444Z,26.57
2022-12-17T00:29:37.882Z,24.92
2022-12-17T00:32:24.028Z,26.00
2022-12-17T00:35:10.062Z,26.87
2022-12-17T00:37:55.881Z,31.00
2022-12-17T00:40:42.743Z,36.07
2022-12-17T00:43:32.043Z,30.60
2022-12-17T00:46:18.069Z,34.03
2022-12-17T00:49:04.239Z,34.73
2022-12-17T00:51:49.889Z,28.60
2022-12-17T00:54:35.683Z,28.67
2022-12-17T00:57:21.716Z,24.87
2022-12-17T01:00:07.316Z,23.60
2022-12-17T01:02:53.017Z,23.30
2022-12-17T01:05:39.525Z,23.50
2022-12-17T01:11:26.651Z,20.73
2022-12-17T01:14:12.646Z,19.00
2022-12-17T01:16:58.256Z,22.97
2022-12-17T01:19:43.895Z,21.30
2022-12-17T01:22:29.576Z,21.73
2022-12-17T01:25:15.172Z,21.97
2022-12-17T01:28:00.805Z,19.73
2022-12-17T01:30:46.582Z,19.80
2022-12-17T01:33:32.293Z,18.23
2022-12-17T01:36:17.770Z,19.70
2022-12-17T01:39:03.597Z,17.30
2022-12-17T01:41:49.083Z,17.80
2022-12-17T01:45:02.394Z,19.93
2022-12-17T01:48:04.411Z,18.13
2022-12-17T01:50:55.496Z,19.40
2022-12-17T01:53:45.012Z,18.93
2022-12-17T01:56:31.129Z,20.80
2022-12-17T01:59:17.803Z,17.37
2022-12-17T02:02:03.462Z,19.10
2022-12-17T02:04:49.966Z,17.00
2022-12-17T02:07:54.401Z,17.60
2022-12-17T02:10:52.721Z,17.63
2022-12-17T02:13:48.933Z,18.37
2022-12-17T02:16:55.033Z,16.23
2022-12-17T02:20:18.707Z,16.03
2022-12-17T02:23:22.681Z,17.70
2022-12-17T02:26:22.871Z,20.97
2022-12-17T02:29:11.145Z,19.43
2022-12-17T02:32:01.310Z,19.33
2022-12-17T02:34:48.271Z,19.13
2022-12-17T02:37:33.703Z,19.03
2022-12-17T02:40:19.424Z,17.10
2022-12-17T02:43:08.166Z,18.27
2022-12-17T02:45:56.342Z,18.00
2022-12-17T02:48:43.460Z,18.37
2022-12-17T02:51:29.328Z,17.55
2022-12-17T02:54:14.873Z,18.17
2022-12-17T02:57:00.496Z,18.27
2022-12-17T02:59:46.160Z,19.13
2022-12-17T03:02:35.145Z,20.10
2022-12-17T03:05:44.065Z,18.87
2022-12-17T03:08:26.771Z,15.83
2022-12-17T03:11:12.463Z,16.53
2022-12-17T03:13:57.945Z,16.87
2022-12-17T03:16:43.748Z,15.23
2022-12-17T03:19:29.302Z,15.57
2022-12-17T03:22:14.993Z,16.97
2022-12-17T03:25:00.540Z,15.33
2022-12-17T03:27:45.964Z,15.50
2022-12-17T03:30:35.674Z,16.03
2022-12-17T03:33:22.292Z,14.70
2022-12-17T03:36:12.472Z,17.87
2022-12-17T03:39:21.108Z,17.00
2022-12-17T03:42:06.791Z,15.80
2022-12-17T03:44:52.528Z,13.20
2022-12-17T03:47:38.266Z,18.40
2022-12-17T03:50:24.310Z,16.23
2022-12-17T03:53:10.064Z,18.30
2022-12-17T03:55:55.550Z,15.97
2022-12-17T03:58:41.301Z,16.67
2022-12-17T04:01:26.890Z,15.53
2022-12-17T04:04:12.668Z,13.47
2022-12-17T04:06:58.119Z,14.60
2022-12-17T04:09:43.584Z,15.30
2022-12-17T04:12:29.240Z,14.03
2022-12-17T04:15:14.645Z,12.50
2022-12-17T04:18:00.397Z,12.37
2022-12-17T04:20:46.017Z,12.20
2022-12-17T04:23:31.731Z,13.30
2022-12-17T04:26:17.587Z,16.17
2022-12-17T04:29:03.157Z,15.30
2022-12-17T04:31:48.541Z,13.43
2022-12-17T04:34:33.897Z,13.17
2022-12-17T04:37:19.480Z,16.50
2022-12-17T04:40:05.000Z,14.03
2022-12-17T04:42:50.579Z,14.73
2022-12-17T04:45:36.126Z,14.43
2022-12-17T04:48:24.257Z,16.17
2022-12-17T04:51:09.993Z,14.80
2022-12-17T04:53:55.703Z,13.83
2022-12-17T04:56:41.534Z,13.77
2022-12-17T04:59:27.030Z,13.93
2022-12-17T05:02:12.573Z,14.40
2022-12-17T05:04:58.315Z,14.17
2022-12-17T05:07:43.776Z,16.00
2022-12-17T05:10:29.317Z,14.53
2022-12-17T05:13:18.698Z,14.03
2022-12-17T05:16:05.094Z,13.93
2022-12-17T05:18:51.139Z,17.70
2022-12-17T05:21:36.713Z,18.07
2022-12-17T05:24:22.272Z,18.40
2022-12-17T05:27:08.158Z,19.93
2022-12-17T05:29:53.590Z,16.90
2022-12-17T05:32:39.111Z,17.73
2022-12-17T05:35:25.027Z,18.63
2022-12-17T05:38:10.914Z,16.47
2022-12-17T05:40:56.473Z,17.07
2022-12-17T05:43:42.058Z,18.03
2022-12-17T05:46:27.600Z,16.83
2022-12-17T05:49:13.221Z,16.60
2022-12-17T05:51:58.934Z,16.57
2022-12-17T05:54:44.610Z,15.90
2022-12-17T05:57:30.197Z,17.13
2022-12-17T06:00:15.823Z,15.53
2022-12-17T06:03:01.487Z,22.93
2022-12-17T06:05:47.435Z,27.27
2022-12-17T06:08:33.066Z,36.23
2022-12-17T06:11:18.989Z,29.00
2022-12-17T06:14:06.107Z,29.53
2022-12-17T06:16:51.651Z,25.33
2022-12-17T06:19:37.225Z,26.00
2022-12-17T06:22:22.995Z,18.03
2022-12-17T06:25:08.483Z,20.33
2022-12-17T06:27:54.178Z,17.63
2022-12-17T06:30:39.765Z,15.87
2022-12-17T06:33:27.376Z,16.20
2022-12-17T06:39:07.221Z,15.70
2022-12-17T06:41:52.772Z,15.50
2022-12-17T06:44:40.323Z,17.47
2022-12-17T06:47:26.076Z,15.13
2022-12-17T06:50:11.879Z,15.37
2022-12-17T06:52:57.311Z,14.93
2022-12-17T06:55:42.723Z,14.47
2022-12-17T06:58:28.689Z,15.13
2022-12-17T07:01:14.375Z,13.30
2022-12-17T07:04:01.088Z,14.50
2022-12-17T07:06:46.594Z,15.13
2022-12-17T07:09:32.044Z,16.70
2022-12-17T07:12:17.798Z,15.13
2022-12-17T07:15:03.319Z,14.87
2022-12-17T07:17:50.405Z,13.73
2022-12-17T07:20:36.108Z,14.13
2022-12-17T07:23:21.842Z,14.67
2022-12-17T07:39:39.017Z,16.93
2022-12-17T07:42:24.641Z,14.73
2022-12-17T07:45:10.303Z,14.27
2022-12-17T07:47:55.918Z,14.17
2022-12-17T07:50:41.372Z,13.57
2022-12-17T07:53:27.145Z,14.73
2022-12-17T07:56:12.838Z,15.37
2022-12-17T07:58:58.443Z,13.80
2022-12-17T08:01:44.251Z,12.80
2022-12-17T08:04:29.872Z,14.57
2022-12-17T08:07:15.579Z,13.33
2022-12-17T08:10:01.338Z,13.13
2022-12-17T08:12:47.063Z,12.50
2022-12-17T08:15:32.738Z,13.77
2022-12-17T08:31:10.474Z,15.63
2022-12-17T08:33:55.947Z,16.27
2022-12-17T08:36:41.598Z,14.13
2022-12-17T08:39:27.407Z,13.00
2022-12-17T08:42:13.040Z,13.77
2022-12-17T08:44:58.414Z,11.97
2022-12-17T08:47:44.246Z,13.17
2022-12-17T08:50:29.942Z,13.10
2022-12-17T08:53:23.145Z,12.87
2022-12-17T08:56:08.817Z,14.00
2022-12-17T08:58:59.147Z,13.07
2022-12-17T09:01:44.879Z,12.23
2022-12-17T09:04:30.665Z,12.50
2022-12-17T09:07:36.428Z,12.60
2022-12-17T09:10:22.837Z,12.20
2022-12-17T09:13:08.637Z,11.17
2022-12-17T09:15:54.366Z,10.73
2022-12-17T09:18:41.084Z,16.43
2022-12-17T09:21:26.855Z,18.63
2022-12-17T09:24:12.604Z,12.27
2022-12-17T09:26:58.284Z,13.10
2022-12-17T09:29:43.951Z,12.73
2022-12-17T09:32:29.610Z,13.47
2022-12-17T09:35:15.255Z,12.97
2022-12-17T09:38:00.811Z,13.13
2022-12-17T09:40:48.654Z,12.10
2022-12-17T09:43:50.632Z,12.27
2022-12-17T09:46:45.359Z,12.23
2022-12-17T09:49:38.797Z,15.63
2022-12-17T09:53:02.893Z,15.53
2022-12-17T09:55:53.386Z,13.70
2022-12-17T09:58:44.674Z,13.03
2022-12-17T10:01:36.402Z,13.03
2022-12-17T10:04:33.534Z,15.47
2022-12-17T10:07:20.700Z,11.50
2022-12-17T10:10:10.268Z,11.27
2022-12-17T10:12:55.975Z,12.03
2022-12-17T10:15:41.646Z,13.87
2022-12-17T10:18:31.042Z,13.03
2022-12-17T10:21:29.703Z,12.13
2022-12-17T10:24:26.082Z,13.13
2022-12-17T10:27:11.774Z,12.70
2022-12-17T10:29:59.970Z,13.93
2022-12-17T10:32:46.781Z,12.33
2022-12-17T10:35:53.172Z,10.48
2022-12-17T10:38:49.664Z,12.03
2022-12-17T10:41:49.821Z,14.07
2022-12-17T10:44:52.515Z,11.27
2022-12-17T10:47:40.593Z,13.10
2022-12-17T10:50:31.115Z,12.57
2022-12-17T10:53:17.566Z,11.07
2022-12-17T15:04:05.904Z,17.60
2022-12-17T15:06:32.901Z,12.67
2022-12-17T15:08:59.872Z,13.73
2022-12-17T15:11:26.854Z,14.77
2022-12-17T15:13:56.536Z,17.10
2022-12-17T15:16:24.445Z,16.50
2022-12-17T15:18:51.471Z,15.47
2022-12-17T15:21:19.707Z,16.03
2022-12-17T15:23:47.843Z,17.90
2022-12-17T15:26:15.417Z,16.13
2022-12-17T15:28:42.996Z,18.03
2022-12-17T15:31:12.576Z,18.27
2022-12-17T15:33:40.350Z,18.27
2022-12-17T15:36:08.176Z,16.00
2022-12-17T15:38:35.474Z,16.77
2022-12-17T15:41:24.252Z,17.37
2022-12-17T15:43:51.281Z,16.37
2022-12-17T15:46:18.629Z,13.53
2022-12-17T15:48:50.083Z,18.20
2022-12-17T15:51:19.748Z,18.00
2022-12-17T15:53:48.199Z,17.50
2022-12-17T15:56:25.789Z,17.13
2022-12-17T15:58:53.440Z,17.77
2022-12-17T16:01:20.570Z,16.17
2022-12-17T16:03:47.719Z,19.60
2022-12-17T16:06:17.943Z,17.80
2022-12-17T16:08:45.081Z,16.33
2022-12-17T16:11:14.347Z,16.10
2022-12-17T16:13:41.406Z,17.17
2022-12-17T16:16:09.030Z,19.93
2022-12-17T16:18:38.732Z,17.60
2022-12-17T16:21:07.838Z,17.73
2022-12-17T16:23:35.730Z,23.67
2022-12-17T16:26:04.964Z,18.53
2022-12-17T16:28:32.423Z,17.87
2022-12-17T16:31:08.228Z,18.00
2022-12-17T16:33:37.690Z,19.30
2022-12-17T16:36:06.543Z,15.73
2022-12-17T16:38:34.191Z,17.30
2022-12-17T16:41:03.386Z,18.20
2022-12-17T16:43:34.636Z,19.77
2022-12-17T16:46:02.677Z,18.27
2022-12-17T16:48:37.583Z,15.93
2022-12-17T16:51:26.545Z,17.83
2022-12-17T16:53:56.018Z,17.33
2022-12-17T16:56:26.302Z,21.00
2022-12-17T16:58:54.037Z,20.67
2022-12-17T17:01:22.743Z,16.87
2022-12-17T17:03:50.427Z,21.20
2022-12-17T17:06:18.984Z,18.50
2022-12-17T17:08:46.536Z,18.57
2022-12-17T17:11:21.329Z,22.17
2022-12-17T17:13:54.192Z,20.53
2022-12-17T17:16:24.308Z,17.23
2022-12-17T17:18:52.330Z,16.83
2022-12-17T17:21:19.223Z,18.07
2022-12-17T17:23:48.024Z,16.93
2022-12-17T17:26:16.194Z,21.40
2022-12-17T17:28:44.771Z,17.87
2022-12-17T17:31:14.036Z,22.00
2022-12-17T17:33:44.577Z,18.07
2022-12-17T17:36:13.928Z,20.33
2022-12-17T17:38:41.857Z,20.70
2022-12-17T17:41:11.630Z,21.20
2022-12-17T17:43:39.484Z,19.90
2022-12-17T17:46:14.080Z,23.50
2022-12-17T17:48:42.624Z,17.03
2022-12-17T17:51:38.960Z,20.40
2022-12-17T17:54:14.231Z,21.87
2022-12-17T17:56:42.406Z,19.40
2022-12-17T17:59:15.974Z,20.77
2022-12-17T18:01:46.327Z,20.53
2022-12-17T18:04:16.938Z,18.87
2022-12-17T18:07:02.787Z,21.60
2022-12-17T18:09:32.663Z,20.80
2022-12-17T18:12:19.513Z,22.53
2022-12-17T18:15:12.159Z,22.10
2022-12-17T18:17:33.462Z,19.98
2022-12-17T18:20:00.474Z,22.97
2022-12-17T18:22:28.512Z,19.00
2022-12-17T18:24:55.493Z,23.37
2022-12-17T18:27:22.686Z,20.77
2022-12-17T18:29:49.671Z,17.40
2022-12-17T18:32:16.732Z,19.50
2022-12-17T18:34:43.792Z,21.60
2022-12-17T18:37:10.901Z,17.90
2022-12-17T18:39:38.217Z,20.67
2022-12-17T18:42:23.989Z,17.27
2022-12-17T18:44:51.057Z,20.40
2022-12-17T18:47:19.085Z,18.07
2022-12-17T18:49:46.152Z,18.30
2022-12-17T18:52:16.777Z,21.40
2022-12-17T18:54:45.483Z,19.20
2022-12-17T18:57:12.458Z,17.37
2022-12-17T18:59:41.132Z,17.27
2022-12-17T19:02:12.887Z,15.20
2022-12-17T19:04:40.703Z,18.43
2022-12-17T19:07:07.684Z,19.53
2022-12-17T19:09:35.829Z,18.83
2022-12-17T19:12:04.849Z,20.23
2022-12-17T19:14:32.054Z,18.47
2022-12-17T19:16:59.978Z,21.43
2022-12-17T19:19:27.429Z,20.37
2022-12-17T19:21:55.442Z,21.17
2022-12-17T19:24:23.042Z,20.03
2022-12-17T19:26:51.109Z,21.80
2022-12-17T19:29:20.560Z,20.57
2022-12-17T19:31:48.540Z,22.33
2022-12-17T19:34:17.466Z,21.13
2022-12-17T19:36:45.233Z,20.60
2022-12-17T19:39:17.607Z,20.83
2022-12-17T19:41:45.235Z,20.50
2022-12-17T19:44:14.545Z,19.83
2022-12-17T19:46:41.916Z,18.90
2022-12-17T19:49:12.023Z,20.07
2022-12-17T19:51:44.506Z,20.23
2022-12-17T19:54:15.539Z,18.13
2022-12-17T19:56:44.906Z,21.17
2022-12-17T19:59:12.973Z,22.93
2022-12-17T20:01:45.814Z,19.77
2022-12-17T20:04:14.545Z,21.27
2022-12-17T20:06:43.007Z,23.40
2022-12-17T20:09:10.582Z,19.10
2022-12-17T20:11:37.603Z,19.03
2022-12-17T20:14:10.606Z,20.77
2022-12-17T20:16:43.369Z,22.17
2022-12-17T20:19:19.673Z,20.40
2022-12-17T20:21:47.515Z,19.50
2022-12-17T20:24:15.335Z,19.67
2022-12-17T20:26:43.407Z,21.10
2022-12-17T20:29:10.544Z,20.93
2022-12-17T20:31:38.932Z,19.80
2022-12-17T20:34:08.247Z,19.53
2022-12-17T20:36:35.971Z,20.03
2022-12-17T20:39:03.474Z,18.80
2022-12-17T20:41:31.943Z,19.47
2022-12-17T20:44:13.181Z,18.60
2022-12-17T20:46:43.859Z,19.37
2022-12-17T20:49:13.098Z,18.87
2022-12-17T20:51:40.588Z,20.67
2022-12-17T20:54:08.550Z,21.13
2022-12-17T20:56:36.319Z,21.17
2022-12-17T20:59:06.624Z,18.23
2022-12-17T21:01:36.052Z,19.43
2022-12-17T21:04:04.044Z,18.90
2022-12-17T21:06:38.110Z,20.70
2022-12-17T21:09:05.571Z,20.03
2022-12-17T21:11:35.003Z,20.67
2022-12-17T21:14:10.314Z,20.03
2022-12-17T21:16:39.278Z,20.30
2022-12-17T21:19:08.115Z,18.53
2022-12-17T21:21:37.798Z,18.90
2022-12-17T21:24:05.636Z,20.53
2022-12-17T21:26:35.411Z,17.70
2022-12-17T21:29:04.321Z,18.63
2022-12-17T21:31:40.844Z,19.57
2022-12-17T21:34:12.774Z,20.50
2022-12-17T21:36:39.806Z,19.23
2022-12-17T21:39:08.793Z,16.57
2022-12-17T21:41:43.659Z,18.60
2022-12-17T21:44:15.411Z,17.30
2022-12-17T21:46:48.913Z,17.63
2022-12-17T21:49:18.200Z,17.33
2022-12-17T21:51:45.395Z,20.30
2022-12-17T21:54:17.308Z,19.70
2022-12-17T21:56:46.699Z,19.67
2022-12-17T21:59:13.718Z,18.23
2022-12-17T22:01:40.818Z,17.23
2022-12-17T22:04:07.998Z,17.20
2022-12-17T22:06:44.682Z,15.37
2022-12-17T22:09:27.897Z,16.43
2022-12-17T22:12:22.937Z,17.73
2022-12-17T22:14:49.990Z,13.87
2022-12-17T22:17:16.942Z,17.03
2022-12-17T22:19:43.888Z,15.07
2022-12-17T22:22:10.980Z,16.57
2022-12-17T22:24:37.975Z,17.53
2022-12-17T22:27:05.105Z,16.77
2022-12-17T22:29:55.189Z,18.47
2022-12-17T22:32:41.049Z,15.90
2022-12-17T22:36:18.992Z,15.68
2022-12-17T22:40:15.932Z,19.33
2022-12-17T22:44:33.308Z,17.00
2022-12-17T22:44:37.715Z,14.50
2022-12-17T22:48:47.598Z,12.02
2022-12-17T22:51:16.281Z,16.23
2022-12-17T22:53:54.941Z,15.80
2022-12-17T22:56:41.531Z,15.03
2022-12-17T22:59:16.851Z,15.77
2022-12-17T23:01:44.764Z,14.63
2022-12-17T23:04:13.869Z,15.93
2022-12-17T23:06:41.914Z,15.70
2022-12-17T23:09:08.904Z,14.60
2022-12-17T23:11:35.902Z,13.67
2022-12-17T23:14:03.340Z,16.57
2022-12-17T23:16:30.443Z,13.93
2022-12-17T23:19:01.063Z,14.40
2022-12-17T23:21:28.631Z,13.30
2022-12-17T23:23:57.164Z,14.73
2022-12-17T23:26:30.111Z,13.70
2022-12-17T23:29:03.223Z,14.60
2022-12-17T23:34:03.485Z,12.90
2022-12-17T23:36:30.502Z,14.60
2022-12-17T23:38:57.683Z,15.60
2022-12-17T23:41:28.322Z,13.07
2022-12-17T23:43:55.763Z,13.97
2022-12-17T23:46:25.213Z,14.63
2022-12-17T23:48:52.304Z,13.63
2022-12-17T23:51:21.799Z,13.53
2022-12-17T23:53:49.236Z,11.43
2022-12-17T23:56:23.303Z,12.97
2022-12-17T23:58:53.810Z,12.87
